Time;durP1;ratioP1;P1;durP2;ratioP2;P2;SDS_P1;SDS_P2;PMS_P1;PMS_P2;Temp;Humidity;BMP_temperature;BMP_pressure;BME280_temperature;BME280_humidity;BME280_pressure;Samples;Min_cycle;Max_cycle;Signal;HPM_P1;HPM_P2
2023/01/18 00:01:18;;;;;;;2.40;2.25;;;;;;;5.13;64.82;96857.81;7670950;32;37199;-83
2023/01/18 00:05:39;;;;;;;2.70;2.50;;;;;;;5.00;65.04;96871.09;7685312;32;39403;-82
2023/01/18 00:09:56;;;;;;;2.70;2.50;;;;;;;4.82;66.46;96862.03;7685347;32;40823;-82
2023/01/18 00:14:12;;;;;;;2.50;2.30;;;;;;;5.04;65.38;96871.25;7685118;32;38603;-82
2023/01/18 00:18:28;;;;;;;2.87;2.58;;;;;;;4.68;67.32;96859.38;7685281;32;37190;-82
2023/01/18 00:22:44;;;;;;;2.85;2.58;;;;;;;4.96;66.45;96836.91;7685073;32;39417;-82
2023/01/18 00:27:00;;;;;;;2.85;2.58;;;;;;;5.02;66.09;96814.09;7684977;32;40024;-83
2023/01/18 00:31:19;;;;;;;2.67;2.47;;;;;;;5.14;66.11;96795.41;7684974;32;38604;-83
2023/01/18 00:35:35;;;;;;;2.70;2.50;;;;;;;5.48;64.86;96756.13;7685002;32;36855;-82
2023/01/18 00:39:52;;;;;;;2.53;2.30;;;;;;;5.06;66.51;96790.75;7685558;32;39904;-82
2023/01/18 00:44:08;;;;;;;3.78;2.80;;;;;;;4.93;66.54;96842.91;7685001;32;40980;-82
2023/01/18 00:48:24;;;;;;;2.75;2.55;;;;;;;5.05;65.82;96879.06;7685018;32;37974;-83
2023/01/18 00:52:45;;;;;;;3.15;2.50;;;;;;;5.14;66.22;96897.22;7685128;32;37091;-82
2023/01/18 00:57:01;;;;;;;2.70;2.50;;;;;;;5.16;65.97;96933.62;7684876;32;40020;-82
2023/01/18 01:01:17;;;;;;;2.78;2.42;;;;;;;5.06;66.13;96940.06;7671052;32;39910;-83
2023/01/18 01:10:10;;;;;;;2.55;2.30;;;;;;;5.35;66.56;96938.84;7684576;32;37109;-82
2023/01/18 01:28:11;;;;;;;2.70;2.50;;;;;;;5.68;65.36;96883.72;7684324;32;37166;-82
2023/01/18 01:32:27;;;;;;;3.35;2.70;;;;;;;5.59;65.86;96900.69;7684314;32;39331;-83
2023/01/18 01:36:43;;;;;;;2.62;2.30;;;;;;;5.67;65.93;96906.44;7684050;32;40842;-82
2023/01/18 01:41:03;;;;;;;3.55;2.28;;;;;;;5.48;66.85;96902.03;7683833;32;38700;-83
2023/01/18 01:45:22;;;;;;;2.35;2.17;;;;;;;5.58;66.65;96890.19;7683414;32;38278;-82
2023/01/18 01:49:45;;;;;;;2.58;2.37;;;;;;;5.43;67.36;96885.97;7670243;32;39373;-81
2023/01/18 01:54:04;;;;;;;2.53;2.33;;;;;;;5.43;67.12;96921.09;7670939;32;40006;-83
2023/01/18 01:58:26;;;;;;;3.35;2.40;;;;;;;5.58;66.73;96939.63;7670369;32;38652;-82
2023/01/18 02:02:45;;;;;;;3.00;2.67;;;;;;;5.40;67.55;96952.22;7683525;32;37903;-82
2023/01/18 02:07:01;;;;;;;2.85;2.62;;;;;;;5.42;66.88;96939.19;7670354;32;39123;-82
2023/01/18 02:11:18;;;;;;;2.55;2.35;;;;;;;5.59;66.54;96919.59;7682961;32;40483;-82
2023/01/18 02:15:39;;;;;;;2.83;2.55;;;;;;;5.70;66.36;96940.97;7682959;32;38621;-82
2023/01/18 02:20:18;;;;;;;3.37;3.03;;;;;;;5.39;66.99;96949.84;7670456;32;36747;-82
2023/01/18 02:25:10;;;;;;;2.80;2.60;;;;;;;5.58;66.14;96966.66;7683182;32;39438;-82
2023/01/18 02:29:48;;;;;;;3.08;2.50;;;;;;;5.74;65.68;96968.97;7671718;32;39961;-83
2023/01/18 02:34:35;;;;;;;2.87;2.45;;;;;;;5.45;67.04;96954.03;7683030;32;38643;-82
2023/01/18 02:38:54;;;;;;;2.50;2.30;;;;;;;5.66;66.74;96957.00;7682675;32;37044;-82
2023/01/18 02:47:47;;;;;;;2.92;2.62;;;;;;;5.87;65.87;96989.72;7682548;32;39698;-82
2023/01/18 02:52:05;;;;;;;3.15;2.50;;;;;;;5.51;67.31;96993.31;7668829;32;37584;-83
2023/01/18 02:56:29;;;;;;;2.62;2.30;;;;;;;5.79;66.66;96987.75;7669118;32;37633;-83
2023/01/18 03:00:53;;;;;;;3.28;2.85;;;;;;;5.34;68.47;96987.78;7685393;32;39497;-83
2023/01/18 03:05:10;;;;;;;3.95;2.80;;;;;;;5.71;67.43;96980.38;7673382;32;40562;-83
2023/01/18 03:09:27;;;;;;;3.25;2.60;;;;;;;6.05;66.33;96976.31;7672614;32;38764;-83
2023/01/18 03:14:05;;;;;;;3.25;2.50;;;;;;;5.35;68.01;96983.97;7672026;32;37691;-84
2023/01/18 03:18:59;;;;;;;3.55;2.72;;;;;;;5.60;67.47;96990.66;7686045;32;39460;-82
2023/01/18 03:37:30;;;;;;;4.20;2.50;;;;;;;5.86;67.37;97015.16;7674790;32;40213;-83
2023/01/18 03:41:50;;;;;;;2.75;2.50;;;;;;;6.18;66.38;96999.78;7685268;32;40958;-82
2023/01/18 03:46:07;;;;;;;2.85;2.60;;;;;;;6.15;66.20;96984.16;7685774;32;37945;-83
2023/01/18 03:50:37;;;;;;;3.25;2.70;;;;;;;6.31;65.27;96969.13;7672181;32;37805;-81
2023/01/18 03:55:16;;;;;;;3.42;2.92;;;;;;;6.17;66.12;96958.41;7673606;32;40177;-83
2023/01/18 03:59:38;;;;;;;5.97;3.78;;;;;;;6.17;65.94;96960.31;7672958;32;40724;-82
2023/01/18 04:03:54;;;;;;;4.65;3.37;;;;;;;5.77;66.96;96952.13;7685372;32;37542;-82
2023/01/18 04:08:10;;;;;;;4.20;3.00;;;;;;;5.69;67.31;96932.06;7685135;32;37197;-82
2023/01/18 04:12:26;;;;;;;4.40;3.22;;;;;;;5.78;67.17;96926.72;7684586;32;39506;-82
2023/01/18 04:16:43;;;;;;;4.90;3.00;;;;;;;5.78;66.90;96926.72;7685601;32;40085;-82
2023/01/18 04:20:59;;;;;;;5.32;3.30;;;;;;;6.03;66.37;96940.69;7685130;32;37928;-83
2023/01/18 04:25:15;;;;;;;3.87;2.90;;;;;;;5.85;66.89;96973.03;7685132;32;37622;-83
2023/01/18 04:29:32;;;;;;;4.62;3.28;;;;;;;6.05;66.29;96979.03;7685441;32;39281;-83
2023/01/18 04:33:51;;;;;;;4.32;3.15;;;;;;;5.99;66.73;96981.88;7685037;32;40894;-82
2023/01/18 04:38:07;;;;;;;5.72;3.50;;;;;;;6.09;66.01;97001.62;7684885;32;37818;-83
2023/01/18 04:42:24;;;;;;;5.07;3.47;;;;;;;5.93;66.53;96993.91;7685041;32;36821;-83
2023/01/18 04:46:40;;;;;;;4.20;3.03;;;;;;;5.95;66.70;96986.28;7685301;32;40125;-83
2023/01/18 04:50:57;;;;;;;5.50;3.15;;;;;;;5.95;66.81;96996.28;7684986;32;40751;-84
2023/01/18 04:55:14;;;;;;;6.35;3.30;;;;;;;5.98;66.75;96999.19;7684692;32;38557;-83
2023/01/18 04:59:30;;;;;;;5.22;3.37;;;;;;;5.99;66.81;97008.91;7685043;32;37138;-82
2023/01/18 05:03:46;;;;;;;4.82;3.37;;;;;;;6.08;66.84;97021.69;7684758;32;40130;-83
2023/01/18 05:08:03;;;;;;;5.80;3.60;;;;;;;6.19;66.50;97021.13;7684401;32;40813;-83
2023/01/18 05:12:19;;;;;;;5.43;3.45;;;;;;;6.28;66.11;97012.22;7684561;32;37940;-83
2023/01/18 05:16:35;;;;;;;3.80;3.15;;;;;;;6.27;66.11;97014.13;7684286;32;36861;-83
2023/01/18 05:20:51;;;;;;;16.50;4.05;;;;;;;6.17;66.20;97017.12;7683408;32;39949;-83
2023/01/18 05:25:08;;;;;;;7.03;3.85;;;;;;;6.20;66.33;97036.22;7684401;32;39840;-83
2023/01/18 05:29:24;;;;;;;7.43;3.85;;;;;;;6.23;66.06;97061.88;7684465;32;38610;-83
2023/01/18 05:33:40;;;;;;;5.47;3.60;;;;;;;5.83;67.30;97084.19;7684708;32;37761;-83
2023/01/18 05:37:57;;;;;;;4.62;3.70;;;;;;;6.23;66.12;97088.09;7684551;32;39947;-83
2023/01/18 05:42:13;;;;;;;5.40;3.40;;;;;;;6.24;66.19;97095.91;7683753;32;41267;-83
2023/01/18 05:46:29;;;;;;;5.82;3.62;;;;;;;6.21;65.98;97107.38;7683772;32;37670;-82
2023/01/18 05:50:47;;;;;;;4.60;3.50;;;;;;;6.24;66.02;97090.50;7683880;32;36883;-83
2023/01/18 05:55:05;;;;;;;5.45;3.78;;;;;;;5.99;66.72;97100.84;7683942;32;38181;-83
2023/01/18 05:59:21;;;;;;;6.75;3.70;;;;;;;6.13;66.25;97106.19;7683401;32;39921;-83
2023/01/18 06:03:37;;;;;;;4.22;3.50;;;;;;;6.19;65.54;97115.81;7683590;32;37785;-83
2023/01/18 06:07:53;;;;;;;5.10;3.47;;;;;;;6.09;65.72;97120.66;7683334;32;37205;-82
2023/01/18 06:12:09;;;;;;;4.40;3.47;;;;;;;6.09;65.44;97102.53;7683083;32;39207;-83
2023/01/18 06:16:25;;;;;;;4.57;3.35;;;;;;;5.90;65.74;97069.41;7683232;32;39755;-83
2023/01/18 06:20:44;;;;;;;4.82;3.72;;;;;;;5.05;67.44;97072.66;7683131;32;36795;-82
2023/01/18 06:25:00;;;;;;;5.28;3.53;;;;;;;5.64;65.74;97062.72;7682912;32;37122;-84
2023/01/18 06:29:16;;;;;;;4.32;3.50;;;;;;;5.77;65.51;97071.09;7677398;32;39062;-84
2023/01/18 06:33:32;;;;;;;5.53;3.60;;;;;;;5.76;65.66;97083.00;7684414;32;39956;-83
2023/01/18 06:37:49;;;;;;;4.53;3.40;;;;;;;5.77;65.61;97062.97;7686500;32;37711;-83
2023/01/18 06:42:06;;;;;;;6.03;3.42;;;;;;;5.79;65.74;97044.53;7686329;32;37842;-83
2023/01/18 06:46:22;;;;;;;4.72;3.58;;;;;;;5.66;66.08;97021.87;7686291;32;39494;-82
2023/01/18 06:50:38;;;;;;;3.65;3.05;;;;;;;5.88;65.19;97039.19;7672666;32;39930;-82
2023/01/18 06:54:54;;;;;;;5.57;3.47;;;;;;;5.80;65.67;97059.66;7686223;32;37870;-82
2023/01/18 06:59:10;;;;;;;5.47;3.70;;;;;;;5.71;65.87;97081.22;7686310;32;37263;-82
2023/01/18 07:03:27;;;;;;;5.65;3.75;;;;;;;5.54;66.41;97090.00;7686069;32;40084;-82
2023/01/18 07:07:45;;;;;;;7.47;4.22;;;;;;;5.60;66.30;97085.25;7686377;32;41453;-82
2023/01/18 07:12:01;;;;;;;11.20;5.75;;;;;;;5.59;66.16;97122.31;7685399;32;38637;-83
2023/01/18 07:16:17;;;;;;;11.45;6.53;;;;;;;5.21;67.63;97156.91;7686037;32;37152;-83
2023/01/18 07:20:33;;;;;;;5.12;3.45;;;;;;;4.94;69.06;97152.28;7685650;32;39152;-82
2023/01/18 07:24:49;;;;;;;3.10;2.80;;;;;;;4.30;69.56;97169.84;7671960;32;39551;-83
2023/01/18 07:29:05;;;;;;;3.35;2.70;;;;;;;3.60;72.65;97176.00;7685720;32;37722;-82
2023/01/18 07:33:22;;;;;;;3.55;3.10;;;;;;;4.43;69.38;97162.09;7694078;32;37020;-83
2023/01/18 07:37:40;;;;;;;4.45;3.30;;;;;;;4.10;70.59;97179.06;7700567;32;39298;-85
2023/01/18 07:41:56;;;;;;;5.78;3.45;;;;;;;3.73;70.88;97198.75;7685435;32;39822;-83
2023/01/18 07:46:17;;;;;;;9.45;3.67;;;;;;;3.58;72.06;97232.09;7684332;32;37727;-83
2023/01/18 07:50:33;;;;;;;8.18;4.68;;;;;;;3.70;72.54;97237.84;7684200;32;37228;-83
2023/01/18 07:54:49;;;;;;;4.20;3.80;;;;;;;3.38;74.39;97233.94;7685678;32;39868;-85
2023/01/18 07:59:06;;;;;;;4.03;3.35;;;;;;;3.70;73.93;97235.16;7685854;32;39608;-87
2023/01/18 08:03:22;;;;;;;6.97;4.28;;;;;;;4.02;72.64;97227.44;7685705;32;37884;-85
2023/01/18 08:07:38;;;;;;;4.10;3.15;;;;;;;4.27;71.45;97226.28;7685445;32;37869;-84
2023/01/18 08:11:55;;;;;;;5.53;3.33;;;;;;;4.74;69.34;97246.03;7685160;32;40171;-84
2023/01/18 08:16:11;;;;;;;4.68;3.35;;;;;;;4.44;69.94;97277.00;7684552;32;40923;-84
2023/01/18 08:20:28;;;;;;;4.00;3.35;;;;;;;4.18;71.09;97298.97;7684632;32;37537;-84
2023/01/18 08:24:44;;;;;;;5.97;4.05;;;;;;;3.90;72.00;97306.06;7685204;32;37051;-83
2023/01/18 08:29:01;;;;;;;5.78;3.85;;;;;;;3.70;73.56;97326.78;7685016;32;39423;-84
2023/01/18 08:33:17;;;;;;;7.03;4.55;;;;;;;4.10;72.77;97335.44;7685034;32;39820;-85
2023/01/18 08:37:33;;;;;;;5.95;4.50;;;;;;;4.30;72.02;97349.78;7681147;32;38773;-85
2023/01/18 08:41:49;;;;;;;6.12;4.15;;;;;;;4.54;70.44;97354.31;7685207;32;36780;-85
2023/01/18 08:46:05;;;;;;;7.75;4.53;;;;;;;4.48;70.34;97357.09;7685211;32;39795;-86
2023/01/18 08:50:23;;;;;;;5.82;4.35;;;;;;;4.70;69.86;97358.38;7684154;32;40738;-86
2023/01/18 08:54:40;;;;;;;5.10;4.00;;;;;;;4.77;69.30;97374.22;7684153;32;37756;-84
2023/01/18 08:58:57;;;;;;;5.10;3.75;;;;;;;5.00;68.75;97375.19;7683956;32;37092;-86
2023/01/18 09:03:13;;;;;;;8.80;4.35;;;;;;;4.74;69.78;97372.09;7683767;32;39383;-84
2023/01/18 09:07:29;;;;;;;6.12;3.80;;;;;;;5.21;68.11;97390.00;7685487;32;40226;-86
2023/01/18 09:11:45;;;;;;;5.28;3.60;;;;;;;4.75;69.16;97404.19;7685358;32;38570;-85
2023/01/18 09:16:07;;;;;;;5.00;3.53;;;;;;;4.47;71.26;97395.16;7684594;32;36704;-83
2023/01/18 09:20:24;;;;;;;6.62;3.97;;;;;;;4.92;70.91;97406.38;7684258;32;39155;-83
2023/01/18 09:24:42;;;;;;;5.00;3.47;;;;;;;5.28;71.19;97435.53;7684296;32;39932;-83
2023/01/18 09:28:59;;;;;;;7.45;3.83;;;;;;;4.16;71.51;97444.06;7683838;32;37785;-84
2023/01/18 09:33:15;;;;;;;4.03;3.60;;;;;;;4.30;70.98;97477.34;7684533;32;37053;-85
2023/01/18 09:37:31;;;;;;;5.82;3.92;;;;;;;4.71;69.55;97489.56;7681711;32;39351;-86
2023/01/18 09:41:57;;;;;;;8.02;5.00;;;;;;;4.11;71.85;97520.44;7682057;32;39908;-85
2023/01/18 09:46:19;;;;;;;6.10;4.40;;;;;;;3.77;73.39;97528.56;7669153;32;37439;-85
2023/01/18 09:50:41;;;;;;;8.73;5.45;;;;;;;4.21;71.76;97551.06;7683021;32;37681;-85
2023/01/18 09:55:15;;;;;;;9.00;5.45;;;;;;;4.50;70.54;97554.56;7691918;32;38972;-81
2023/01/18 10:00:13;;;;;;;8.75;5.10;;;;;;;4.21;71.59;97553.78;7663587;32;39106;-79
2023/01/18 10:04:38;;;;;;;6.57;4.97;;;;;;;4.30;72.21;97571.75;7548858;33;37545;-84
2023/01/18 10:09:03;;;;;;;8.50;5.07;;;;;;;4.52;71.10;97573.16;7616577;32;37655;-83
2023/01/18 10:13:54;;;;;;;9.02;5.30;;;;;;;4.93;70.55;97566.47;7686092;32;39343;-84
2023/01/18 10:18:14;;;;;;;7.95;5.30;;;;;;;5.39;68.89;97582.09;7593531;32;40696;-84
2023/01/18 10:23:08;;;;;;;7.25;5.22;;;;;;;5.20;69.42;97580.16;7683226;32;37821;-83
2023/01/18 10:27:38;;;;;;;7.07;4.60;;;;;;;5.65;68.05;97583.31;7675651;32;36547;-84
2023/01/18 10:32:09;;;;;;;6.93;4.43;;;;;;;5.86;67.85;97588.41;7672003;32;39064;-83
2023/01/18 10:36:32;;;;;;;6.40;4.75;;;;;;;5.97;68.31;97595.31;7673918;32;39963;-83
2023/01/18 10:40:59;;;;;;;6.05;3.62;;;;;;;6.31;66.86;97607.75;7672954;32;37783;-83
2023/01/18 10:45:25;;;;;;;6.45;4.25;;;;;;;6.71;66.12;97591.84;7686236;32;37733;-83
2023/01/18 10:49:44;;;;;;;6.93;4.60;;;;;;;6.86;64.80;97604.28;7686374;32;39999;-83
2023/01/18 10:54:25;;;;;;;7.07;4.30;;;;;;;6.98;64.97;97611.91;7686526;32;39992;-84
2023/01/18 10:58:49;;;;;;;6.93;4.20;;;;;;;7.12;65.19;97612.72;7673581;32;38546;-83
2023/01/18 11:03:12;;;;;;;6.18;4.28;;;;;;;7.33;64.30;97636.69;7686104;32;37571;-83
2023/01/18 11:07:29;;;;;;;8.73;4.47;;;;;;;6.65;65.32;97649.91;7672353;32;39361;-84
2023/01/18 11:16:21;;;;;;;6.07;3.83;;;;;;;7.68;62.31;97651.38;7685801;32;38592;-83
2023/01/18 11:20:50;;;;;;;6.68;3.90;;;;;;;7.26;62.49;97652.53;7671460;32;37745;-84
2023/01/18 11:25:16;;;;;;;5.75;3.78;;;;;;;7.92;64.13;97654.91;7672431;32;39945;-84
2023/01/18 11:29:38;;;;;;;5.20;3.70;;;;;;;8.35;61.13;97649.84;7685794;32;41589;-83
2023/01/18 11:34:03;;;;;;;5.70;3.58;;;;;;;8.21;61.35;97665.38;7685678;32;37772;-84
2023/01/18 11:38:20;;;;;;;7.37;3.65;;;;;;;8.64;59.68;97676.56;7685786;32;36815;-84
2023/01/18 11:42:36;;;;;;;5.20;3.58;;;;;;;8.15;61.08;97699.97;7685618;32;40198;-84
2023/01/18 11:46:56;;;;;;;6.82;3.92;;;;;;;7.77;62.88;97705.72;7671950;32;39993;-84
2023/01/18 11:51:39;;;;;;;7.68;3.95;;;;;;;7.30;62.02;97715.91;7685397;32;38615;-84
2023/01/18 11:56:06;;;;;;;5.25;3.80;;;;;;;7.22;62.04;97740.97;7657056;32;37028;-84
2023/01/18 12:00:27;;;;;;;4.75;3.50;;;;;;;8.38;61.21;97738.00;7673110;32;40030;-84
2023/01/18 12:04:53;;;;;;;7.78;4.20;;;;;;;8.06;59.79;97754.19;7672248;32;40051;-84
2023/01/18 12:09:19;;;;;;;6.53;4.03;;;;;;;8.79;60.85;97753.34;7685318;32;37467;-84
2023/01/18 12:13:52;;;;;;;5.75;3.58;;;;;;;9.04;58.06;97749.19;7684915;32;37641;-84
2023/01/18 12:18:20;;;;;;;6.07;3.58;;;;;;;9.21;55.27;97764.81;7673872;32;39410;-84
2023/01/18 12:22:57;;;;;;;5.97;3.47;;;;;;;8.41;56.06;97778.91;7685211;32;39994;-84
2023/01/18 12:27:25;;;;;;;7.90;3.17;;;;;;;8.64;57.70;97796.09;7685021;32;38293;-83
2023/01/18 12:32:39;;;;;;;4.70;3.20;;;;;;;9.84;56.86;97808.25;7684767;32;37041;-83
2023/01/18 12:37:14;;;;;;;3.97;3.15;;;;;;;10.02;51.04;97798.22;7550699;33;39802;-84
2023/01/18 12:41:41;;;;;;;5.10;3.03;;;;;;;9.77;51.90;97814.16;7635635;32;40434;-84
2023/01/18 12:46:20;;;;;;;4.43;3.05;;;;;;;10.18;52.37;97831.25;7684791;32;37513;-84
2023/01/18 12:50:38;;;;;;;6.53;2.78;;;;;;;10.14;50.81;97831.91;7673305;32;37236;-83
2023/01/18 12:55:00;;;;;;;4.40;2.70;;;;;;;10.42;50.42;97811.78;7684822;32;39406;-85
2023/01/18 12:59:23;;;;;;;4.15;2.53;;;;;;;10.34;49.40;97833.22;7671426;32;39826;-85
2023/01/18 13:03:44;;;;;;;5.63;2.80;;;;;;;10.64;50.89;97857.16;7684666;32;37822;-84
2023/01/18 13:08:07;;;;;;;4.10;2.87;;;;;;;10.85;50.11;97843.72;7671500;32;37063;-85
2023/01/18 13:12:24;;;;;;;3.37;2.30;;;;;;;10.19;49.15;97857.38;7671137;32;40019;-84
2023/01/18 13:16:55;;;;;;;3.70;2.67;;;;;;;10.47;50.20;97872.38;7684302;32;40057;-84
2023/01/18 13:21:34;;;;;;;5.93;3.10;;;;;;;10.76;51.59;97881.06;7683933;32;37573;-84
2023/01/18 13:25:54;;;;;;;3.25;2.20;;;;;;;10.85;50.65;97858.13;7684107;32;37089;-85
2023/01/18 13:30:18;;;;;;;3.30;2.30;;;;;;;11.46;48.26;97860.00;7671070;32;39422;-84
2023/01/18 13:34:36;;;;;;;5.15;2.70;;;;;;;11.91;47.18;97880.59;7670648;32;40003;-84
2023/01/18 13:39:11;;;;;;;2.62;2.40;;;;;;;11.40;46.16;97924.03;7671792;32;37933;-83
2023/01/18 13:43:33;;;;;;;4.03;2.53;;;;;;;11.03;47.62;97937.19;7670261;32;37137;-84
2023/01/18 13:47:52;;;;;;;3.78;2.45;;;;;;;10.32;49.15;97927.28;7683763;32;40180;-83
2023/01/18 13:52:44;;;;;;;4.90;2.40;;;;;;;10.66;49.95;97929.31;7683687;32;39931;-84
2023/01/18 13:57:08;;;;;;;;;;;;;;;10.37;51.19;97946.22;7592714;32;38554;-85
2023/01/18 14:01:27;;;;;;;4.47;2.50;;;;;;;10.68;50.79;97951.59;7683894;32;37225;-84
2023/01/18 14:05:45;;;;;;;4.10;2.30;;;;;;;10.45;54.27;97952.78;7683466;32;40205;-84
2023/01/18 14:10:04;;;;;;;2.42;1.90;;;;;;;10.61;52.33;97953.19;7669876;32;38947;-84
2023/01/18 14:14:31;;;;;;;5.07;2.42;;;;;;;10.57;52.26;97950.25;7655697;32;37913;-84
2023/01/18 14:18:50;;;;;;;3.37;2.58;;;;;;;10.36;53.80;97951.97;7656897;32;36959;-84
2023/01/18 14:23:50;;;;;;;4.85;2.83;;;;;;;10.24;53.11;97952.53;7656730;32;40111;-84
2023/01/18 14:28:15;;;;;;;3.22;2.45;;;;;;;9.89;54.44;97960.53;7656601;32;39979;-84
2023/01/18 14:32:36;;;;;;;4.03;2.70;;;;;;;9.76;55.91;97965.75;7656432;32;37520;-84
2023/01/18 14:36:53;;;;;;;4.05;2.60;;;;;;;9.58;56.71;97970.25;7656362;32;37006;-84
2023/01/18 14:41:15;;;;;;;6.30;3.20;;;;;;;9.96;54.84;97985.38;7656260;32;40054;-84
2023/01/18 14:45:35;;;;;;;5.72;3.20;;;;;;;9.89;54.05;98002.16;7656060;32;40540;-84
2023/01/18 14:49:54;;;;;;;7.15;3.60;;;;;;;9.77;55.72;98016.34;7655991;32;38076;-83
2023/01/18 14:54:15;;;;;;;7.28;3.83;;;;;;;9.71;55.34;98020.31;7656220;32;37173;-84
2023/01/18 14:58:53;;;;;;;7.57;3.95;;;;;;;9.72;55.01;98030.06;7658717;32;39302;-83
2023/01/18 15:03:29;;;;;;;6.28;3.53;;;;;;;9.64;54.09;98033.53;7659740;32;40696;-84
2023/01/18 15:07:54;;;;;;;6.07;3.12;;;;;;;9.39;55.63;98041.16;7659749;32;37712;-84
2023/01/18 15:12:13;;;;;;;;;;;;;;;9.26;56.29;98036.59;7669584;32;37023;-84
2023/01/18 15:16:30;;;;;;;4.30;2.33;;;;;;;9.06;56.99;98034.31;7686134;32;39720;-84
2023/01/18 15:21:05;;;;;;;5.57;2.50;;;;;;;9.46;55.23;98034.50;7685917;32;39955;-84
2023/01/18 15:25:30;;;;;;;4.10;2.60;;;;;;;9.21;56.26;98025.81;7685771;32;38701;-84
2023/01/18 15:29:52;;;;;;;4.12;2.72;;;;;;;8.84;57.21;98027.66;7685725;32;37808;-84
2023/01/18 15:34:14;;;;;;;4.15;2.47;;;;;;;9.05;56.40;98019.87;7685810;32;39281;-84
2023/01/18 15:38:30;;;;;;;5.20;2.95;;;;;;;8.60;57.26;98023.25;7672952;32;39957;-84
2023/01/18 15:43:12;;;;;;;4.18;2.70;;;;;;;8.91;56.42;98027.28;7685575;32;37931;-84
2023/01/18 15:47:35;;;;;;;6.12;3.30;;;;;;;8.97;56.19;98031.50;7685517;32;37052;-84
2023/01/18 15:51:51;;;;;;;4.45;2.97;;;;;;;8.86;56.40;98041.75;7685691;32;39896;-83
2023/01/18 15:56:14;;;;;;;3.70;2.75;;;;;;;8.86;56.25;98040.97;7685461;32;40857;-83
2023/01/18 16:00:44;;;;;;;5.82;3.30;;;;;;;8.67;56.69;98035.63;7685426;32;37881;-84
2023/01/18 16:05:22;;;;;;;5.75;3.05;;;;;;;8.50;57.26;98063.38;7672458;32;37108;-85
2023/01/18 16:09:39;;;;;;;6.10;3.58;;;;;;;8.53;57.11;98077.16;7685338;32;40043;-84
2023/01/18 16:14:06;;;;;;;5.18;3.40;;;;;;;8.23;57.84;98081.22;7685219;32;39634;-84
2023/01/18 16:18:24;;;;;;;4.72;3.15;;;;;;;8.48;57.27;98090.03;7685187;32;38507;-83
2023/01/18 16:22:41;;;;;;;4.62;3.37;;;;;;;8.46;57.13;98093.06;7671459;32;37033;-84
2023/01/18 16:27:00;;;;;;;8.15;4.00;;;;;;;8.16;57.77;98111.47;7671489;32;39476;-83
2023/01/18 16:31:18;;;;;;;10.00;4.90;;;;;;;8.22;57.81;98088.53;7671846;32;40028;-83
2023/01/18 16:35:38;;;;;;;7.50;3.90;;;;;;;8.14;58.48;98118.28;7671652;32;36732;-83
2023/01/18 16:39:55;;;;;;;6.30;3.70;;;;;;;8.22;58.53;98107.53;7685022;32;37825;-84
2023/01/18 16:44:11;;;;;;;6.57;3.80;;;;;;;8.25;57.99;98108.88;7685006;32;40142;-84
2023/01/18 16:48:29;;;;;;;7.18;3.70;;;;;;;8.31;57.67;98094.09;7671395;32;40832;-84
2023/01/18 16:52:47;;;;;;;5.90;3.55;;;;;;;8.33;57.63;98112.81;7684890;32;38351;-83
2023/01/18 16:57:05;;;;;;;5.78;3.75;;;;;;;8.27;57.96;98107.47;7684816;32;36752;-84
2023/01/18 17:01:21;;;;;;;6.62;3.92;;;;;;;8.29;57.97;98112.59;7684711;32;39354;-84
2023/01/18 17:05:37;;;;;;;7.37;4.30;;;;;;;8.28;57.91;98130.81;7684476;32;40804;-84
2023/01/18 17:09:53;;;;;;;6.28;4.03;;;;;;;8.15;58.56;98147.03;7684538;32;38337;-83
2023/01/18 17:14:11;;;;;;;8.63;4.10;;;;;;;8.06;58.77;98139.56;7684422;32;36351;-84
2023/01/18 17:18:28;;;;;;;9.30;5.30;;;;;;;7.98;59.10;98131.28;7683147;32;40155;-84
2023/01/18 17:22:44;;;;;;;6.97;4.68;;;;;;;8.08;58.86;98155.56;7684493;32;40961;-83
2023/01/18 17:27:01;;;;;;;10.52;5.35;;;;;;;8.15;58.81;98164.13;7684090;32;38494;-83
2023/01/18 17:31:17;;;;;;;8.73;5.18;;;;;;;8.18;58.75;98157.31;7684159;32;37226;-84
2023/01/18 17:35:33;;;;;;;9.85;5.35;;;;;;;8.17;58.63;98156.50;7684171;32;39363;-84
2023/01/18 17:39:49;;;;;;;12.18;6.22;;;;;;;8.24;58.83;98153.41;7684009;32;39808;-83
2023/01/18 17:44:27;;;;;;;11.35;5.72;;;;;;;8.05;59.85;98158.84;7683361;32;37799;-84
2023/01/18 17:48:52;;;;;;;11.02;5.87;;;;;;;7.92;61.39;98165.00;7683737;32;37951;-84
2023/01/18 17:53:08;;;;;;;10.07;6.18;;;;;;;8.11;60.98;98162.31;7683790;32;39624;-84
2023/01/18 17:57:25;;;;;;;9.38;6.07;;;;;;;7.86;61.81;98162.41;7683600;32;39834;-84
2023/01/18 18:01:41;;;;;;;11.02;6.07;;;;;;;8.12;61.12;98163.91;7683615;32;37855;-84
2023/01/18 18:05:58;;;;;;;10.55;6.45;;;;;;;8.05;61.12;98175.97;7683426;32;37035;-84
2023/01/18 18:10:15;;;;;;;11.00;5.90;;;;;;;8.15;61.13;98168.75;7683411;32;39286;-84
2023/01/18 18:14:33;;;;;;;11.45;6.90;;;;;;;7.81;62.17;98176.03;7683078;32;39743;-83
2023/01/18 18:18:49;;;;;;;13.27;8.15;;;;;;;7.41;63.88;98189.03;7683287;32;38344;-84
2023/01/18 18:23:05;;;;;;;12.65;7.57;;;;;;;7.16;64.46;98184.72;7683080;32;36739;-84
2023/01/18 18:27:22;;;;;;;14.40;7.90;;;;;;;7.59;63.34;98189.34;7683238;32;38922;-83
2023/01/18 18:31:46;;;;;;;14.38;7.87;;;;;;;7.51;63.93;98199.75;7686276;32;40627;-84
2023/01/18 18:36:02;;;;;;;16.17;7.32;;;;;;;7.67;63.21;98199.56;7686235;32;38649;-84
2023/01/18 18:40:19;;;;;;;12.98;7.82;;;;;;;7.83;63.24;98192.84;7686321;32;37170;-84
2023/01/18 18:44:35;;;;;;;10.93;7.05;;;;;;;7.92;62.99;98189.44;7686279;32;39317;-84
2023/01/18 18:48:53;;;;;;;15.55;8.10;;;;;;;7.85;63.24;98177.06;7686149;32;39668;-84
2023/01/18 18:53:09;;;;;;;13.77;8.35;;;;;;;7.83;63.21;98176.56;7686202;32;37444;-84
2023/01/18 18:57:27;;;;;;;16.80;8.48;;;;;;;7.63;64.17;98184.97;7686119;32;37141;-84
2023/01/18 19:01:44;;;;;;;14.48;8.80;;;;;;;7.68;64.07;98187.63;7686165;32;39298;-84
2023/01/18 19:06:00;;;;;;;16.00;9.57;;;;;;;7.53;64.40;98202.97;7685927;32;40038;-84
2023/01/18 19:10:17;;;;;;;16.42;8.93;;;;;;;7.60;64.50;98212.66;7685840;32;37818;-84
2023/01/18 19:14:33;;;;;;;15.52;9.32;;;;;;;7.69;64.01;98209.03;7685833;32;37915;-84
2023/01/18 19:18:49;;;;;;;15.90;9.23;;;;;;;7.69;63.87;98200.06;7685887;32;38975;-83
2023/01/18 19:23:06;;;;;;;16.08;9.25;;;;;;;7.57;64.43;98200.50;7683474;32;39643;-84
2023/01/18 19:27:23;;;;;;;14.98;9.65;;;;;;;7.51;65.22;98199.75;7685347;32;37895;-83
2023/01/18 19:31:39;;;;;;;15.20;9.43;;;;;;;7.53;64.49;98192.13;7685749;32;37145;-85
2023/01/18 19:35:56;;;;;;;16.00;8.85;;;;;;;7.47;64.68;98198.72;7685757;32;39325;-83
2023/01/18 19:40:13;;;;;;;16.02;9.48;;;;;;;7.37;64.47;98206.97;7684396;32;40019;-83
2023/01/18 19:44:29;;;;;;;15.25;9.18;;;;;;;7.48;64.39;98205.75;7683840;32;37856;-84
2023/01/18 19:48:45;;;;;;;17.12;9.13;;;;;;;7.47;64.13;98198.72;7684922;32;37666;-83
2023/01/18 19:53:02;;;;;;;15.32;9.95;;;;;;;7.50;64.02;98214.41;7684768;32;39007;-87
2023/01/18 19:57:18;;;;;;;18.33;10.88;;;;;;;7.37;63.96;98222.44;7684923;32;40800;-86
2023/01/18 20:01:35;;;;;;;16.83;9.70;;;;;;;7.14;64.84;98214.81;7685274;32;37869;-86
2023/01/18 20:05:53;;;;;;;17.70;11.27;;;;;;;7.07;64.33;98217.06;7684694;32;37154;-86
2023/01/18 20:10:09;;;;;;;17.98;11.07;;;;;;;6.82;65.95;98220.03;7682490;32;40279;-84
2023/01/18 20:14:26;;;;;;;18.87;10.88;;;;;;;7.01;65.30;98233.66;7684995;32;40557;-84
2023/01/18 20:18:55;;;;;;;18.98;11.52;;;;;;;6.98;65.53;98224.19;7685108;32;37537;-84
2023/01/18 20:23:12;;;;;;;20.33;11.35;;;;;;;7.13;65.17;98226.75;7685033;32;37644;-85
2023/01/18 20:27:29;;;;;;;20.75;12.63;;;;;;;7.05;65.33;98235.50;7684450;32;39388;-86
2023/01/18 20:31:45;;;;;;;20.23;12.10;;;;;;;7.03;65.59;98240.41;7670902;32;40548;-87
2023/01/18 20:36:06;;;;;;;19.58;12.90;;;;;;;7.05;65.60;98246.34;7684843;32;38003;-84
2023/01/18 20:40:22;;;;;;;21.98;12.55;;;;;;;6.98;65.78;98235.03;7683792;32;37114;-86
2023/01/18 20:44:39;;;;;;;20.23;12.30;;;;;;;7.05;65.57;98246.34;7684651;32;39989;-87
2023/01/18 20:48:55;;;;;;;20.80;12.43;;;;;;;7.18;65.56;98241.34;7684520;32;40946;-85
2023/01/18 20:53:11;;;;;;;22.92;13.85;;;;;;;7.10;65.84;98254.41;7702143;32;37593;-84
2023/01/18 20:57:31;;;;;;;21.55;11.93;;;;;;;7.26;65.63;98246.13;7691901;32;36933;-84
2023/01/18 21:01:47;;;;;;;20.12;13.45;;;;;;;7.28;65.65;98246.66;7684426;32;39511;-85
2023/01/18 21:06:03;;;;;;;20.88;12.15;;;;;;;7.00;66.65;98257.22;7684206;32;40758;-85
2023/01/18 21:10:19;;;;;;;21.98;13.10;;;;;;;7.38;65.62;98254.69;7684185;32;38426;-83
2023/01/18 21:14:37;;;;;;;20.75;12.77;;;;;;;7.20;66.29;98258.94;7683979;32;37952;-85
2023/01/18 21:18:55;;;;;;;22.83;13.18;;;;;;;7.22;66.05;98251.31;7684287;32;40185;-85